Time;durP1;ratioP1;P1;durP2;ratioP2;P2;SDS_P1;SDS_P2;PMS_P1;PMS_P2;Temp;Humidity;BMP_temperature;BMP_pressure;BME280_temperature;BME280_humidity;BME280_pressure;Samples;Min_cycle;Max_cycle;Signal;HPM_P1;HPM_P2
2021/06/27 00:01:21;;;;;;;52.35;40.60;;;21.20;99.90;;;21.50;83.25;101729.63;5112927;28;20134;-74
2021/06/27 00:03:50;;;;;;;57.47;41.60;;;21.20;99.90;;;21.40;83.15;101709.38;5115713;28;20096;-73
2021/06/27 00:06:19;;;;;;;52.83;40.63;;;21.20;99.90;;;21.52;82.96;101730.44;5116603;28;20039;-73
2021/06/27 00:08:49;;;;;;;55.90;41.72;;;21.20;99.90;;;21.46;83.11;101730.69;5116324;28;20054;-73
2021/06/27 00:11:19;;;;;;;50.63;40.20;;;21.20;99.90;;;21.46;83.02;101719.03;5098263;28;20067;-73
2021/06/27 00:13:50;;;;;;;53.72;40.85;;;21.20;99.90;;;21.50;82.94;101720.69;5116462;28;20051;-73
2021/06/27 00:16:19;;;;;;;;;;;21.20;99.90;;;21.46;83.03;101725.31;5098707;28;20153;-73
2021/06/27 00:18:48;;;;;;;54.70;42.13;;;21.20;99.90;;;21.48;82.93;101718.06;5116154;28;19928;-73
2021/06/27 00:21:17;;;;;;;52.33;41.05;;;21.20;99.90;;;21.29;83.21;101708.00;5116077;28;20043;-73
2021/06/27 00:23:50;;;;;;;58.30;43.47;;;21.10;99.90;;;20.93;83.33;101634.75;5097727;28;20417;-73
2021/06/27 00:26:25;;;;;;;56.95;42.83;;;21.10;99.90;;;21.34;83.40;101711.38;5116194;28;20571;-73
2021/06/27 00:28:55;;;;;;;59.67;43.03;;;21.10;99.90;;;21.24;83.34;101699.19;5116309;28;20056;-73
2021/06/27 00:31:23;;;;;;;58.00;43.40;;;21.10;99.90;;;21.35;83.41;101723.94;5115916;28;20108;-73
2021/06/27 00:33:52;;;;;;;51.97;41.10;;;21.10;99.90;;;21.35;83.26;101715.84;5115705;28;20040;-73
2021/06/27 00:36:21;;;;;;;55.05;43.17;;;21.10;99.90;;;20.87;83.33;101632.28;5097730;28;20052;-73
2021/06/27 00:38:51;;;;;;;57.08;43.95;;;21.10;99.90;;;21.37;83.39;101719.34;5115894;28;20043;-73
2021/06/27 00:41:19;;;;;;;56.20;43.45;;;21.10;99.90;;;21.37;83.18;101716.66;5097702;28;20047;-73
2021/06/27 00:43:48;;;;;;;57.47;43.13;;;21.10;99.90;;;21.34;83.17;101714.09;5115921;28;20043;-73
2021/06/27 00:46:16;;;;;;;60.58;46.03;;;21.10;99.90;;;21.31;83.09;101708.81;5115537;28;20036;-73
2021/06/27 00:48:44;;;;;;;56.45;42.78;;;21.00;99.90;;;21.28;83.13;101707.09;5115548;28;20051;-73
2021/06/27 00:51:13;;;;;;;57.58;44.55;;;21.00;99.90;;;21.17;83.25;101694.97;5115523;28;20493;-74
2021/06/27 00:53:42;;;;;;;57.95;43.53;;;21.00;99.90;;;21.24;83.30;101705.44;5097344;28;20040;-73
2021/06/27 00:56:12;;;;;;;61.40;43.95;;;20.90;99.90;;;21.22;83.29;101699.25;5115257;28;20134;-74
2021/06/27 00:58:41;;;;;;;60.40;43.67;;;20.90;99.90;;;21.20;83.42;101697.53;5115412;28;20481;-73
2021/06/27 01:01:09;;;;;;;63.33;44.75;;;20.90;99.90;;;21.21;83.42;101691.22;5115566;28;20071;-73
2021/06/27 01:03:39;;;;;;;56.05;43.75;;;20.90;99.90;;;21.25;83.22;101695.56;5115551;28;20437;-73
2021/06/27 01:06:08;;;;;;;57.65;45.33;;;20.90;99.90;;;21.18;83.18;101689.53;5115534;28;20130;-73
2021/06/27 01:08:37;;;;;;;55.90;43.35;;;20.90;99.90;;;21.09;83.55;101691.66;5115441;28;20043;-73
2021/06/27 01:11:06;;;;;;;59.53;45.03;;;20.80;99.90;;;21.06;83.63;101684.56;5115701;28;20047;-73
2021/06/27 01:13:35;;;;;;;58.20;44.53;;;20.80;99.90;;;21.05;83.49;101690.00;5096444;28;20039;-73
2021/06/27 01:16:05;;;;;;;60.57;45.67;;;20.70;99.90;;;21.02;83.66;101680.22;5115233;28;20082;-74
2021/06/27 01:18:34;;;;;;;61.78;46.97;;;20.70;99.90;;;21.03;83.59;101678.41;5097245;28;20079;-73
2021/06/27 01:21:07;;;;;;;60.30;45.60;;;20.70;99.90;;;20.84;83.70;101664.69;5115140;28;20063;-73
2021/06/27 01:23:36;;;;;;;62.88;46.65;;;20.70;99.90;;;20.98;83.79;101672.28;5114959;28;20548;-73
2021/06/27 01:26:04;;;;;;;60.50;45.58;;;20.70;99.90;;;20.97;83.78;101682.16;5096602;28;20048;-73
2021/06/27 01:28:33;;;;;;;57.55;45.38;;;20.70;99.90;;;21.01;83.53;101678.47;5096707;28;20561;-74
2021/06/27 01:31:02;;;;;;;60.60;45.83;;;20.70;99.90;;;20.98;83.50;101674.97;5114716;28;20039;-73
2021/06/27 01:33:30;;;;;;;62.20;44.42;;;20.70;99.90;;;20.93;83.51;101663.47;5114898;28;20064;-73
2021/06/27 01:35:58;;;;;;;57.92;44.45;;;20.70;99.90;;;20.94;83.55;101674.19;5096578;28;20140;-73
2021/06/27 01:38:31;;;;;;;56.45;45.72;;;20.60;99.90;;;20.87;83.58;101658.28;5114861;28;20043;-73
2021/06/27 01:40:59;;;;;;;56.17;44.92;;;20.60;99.90;;;20.87;83.65;101661.88;5114873;28;20051;-74
2021/06/27 01:43:28;;;;;;;59.30;45.42;;;20.60;99.90;;;20.83;83.68;101656.69;5096475;28;20043;-73
2021/06/27 01:45:59;;;;;;;60.08;46.13;;;20.60;99.90;;;20.83;83.75;101659.38;5114743;28;20043;-73
2021/06/27 01:48:29;;;;;;;59.75;45.90;;;20.50;99.90;;;20.82;83.66;101655.78;5096463;28;20070;-74
2021/06/27 01:51:00;;;;;;;57.78;45.00;;;20.50;99.90;;;20.76;83.77;101665.84;5114686;28;20040;-73
2021/06/27 01:53:33;;;;;;;60.85;47.20;;;20.50;99.90;;;20.70;83.98;101664.25;5114357;28;20098;-73
2021/06/27 01:56:05;;;;;;;62.30;46.95;;;20.40;99.90;;;20.72;83.99;101666.88;5114353;28;20404;-73
2021/06/27 01:58:37;;;;;;;61.20;46.58;;;20.40;99.90;;;20.73;83.93;101671.34;5114198;28;20040;-73
2021/06/27 02:01:10;;;;;;;61.55;45.55;;;20.40;99.90;;;20.72;83.95;101669.56;5096238;28;20096;-73
2021/06/27 02:03:39;;;;;;;62.83;46.63;;;20.40;99.90;;;20.66;83.92;101667.97;5114428;28;20043;-73
2021/06/27 02:06:09;;;;;;;56.53;43.30;;;20.40;99.90;;;20.63;83.93;101660.88;5114324;28;20122;-73
2021/06/27 02:08:42;;;;;;;59.83;45.35;;;20.40;99.90;;;20.49;83.92;101660.47;5114359;28;20043;-73
2021/06/27 02:11:14;;;;;;;61.38;46.38;;;20.40;99.90;;;20.58;84.06;101664.66;5114222;28;20057;-73
2021/06/27 02:13:45;;;;;;;59.47;45.13;;;20.30;99.90;;;20.63;84.05;101676.16;5114293;28;20085;-73
2021/06/27 02:16:14;;;;;;;57.90;45.08;;;20.30;99.90;;;20.56;83.82;101672.78;5114170;28;20052;-73
2021/06/27 02:18:47;;;;;;;59.85;46.10;;;20.30;99.90;;;20.58;83.79;101657.47;5113808;28;20492;-73
2021/06/27 02:21:20;;;;;;;59.53;45.33;;;20.30;99.90;;;20.63;83.87;101676.16;5113855;28;20040;-73
2021/06/27 02:23:50;;;;;;;57.25;45.97;;;20.30;99.90;;;20.54;83.52;101660.31;5113671;28;20055;-73
2021/06/27 02:26:21;;;;;;;55.30;43.20;;;20.30;99.90;;;20.65;83.50;101672.47;5113156;28;20093;-73
2021/06/27 02:28:50;;;;;;;57.60;45.58;;;20.40;99.90;;;20.68;83.43;101674.19;5114017;28;20546;-73
2021/06/27 02:31:19;;;;;;;57.78;45.08;;;20.40;99.90;;;20.63;83.44;101673.47;5113890;28;20079;-73
2021/06/27 02:33:48;;;;;;;59.40;47.30;;;20.30;99.90;;;20.65;83.48;101672.47;5113880;28;20147;-73
2021/06/27 02:36:17;;;;;;;59.60;45.78;;;20.30;99.90;;;20.68;83.19;101695.69;5113716;28;20088;-73
2021/06/27 02:38:45;;;;;;;61.53;46.13;;;20.40;99.90;;;20.61;83.11;101670.81;5113705;28;20476;-73
2021/06/27 02:41:16;;;;;;;56.72;44.42;;;20.40;99.90;;;20.64;83.23;101668.03;5113718;28;20113;-73
2021/06/27 02:43:47;;;;;;;57.67;45.53;;;20.30;99.90;;;20.63;83.21;101668.09;5114011;28;20048;-73
2021/06/27 02:46:16;;;;;;;58.20;43.78;;;20.30;99.90;;;20.50;83.19;101647.88;5114016;28;20097;-73
2021/06/27 02:48:45;;;;;;;57.40;44.63;;;20.30;99.90;;;20.61;83.22;101668.13;5113653;28;20043;-74
2021/06/27 02:51:13;;;;;;;60.65;46.50;;;20.30;99.90;;;20.61;82.98;101661.88;5113610;28;20048;-74
2021/06/27 02:53:42;;;;;;;55.88;44.60;;;20.30;99.90;;;20.59;83.22;101659.25;5113532;28;20112;-73
2021/06/27 02:56:10;;;;;;;56.92;45.00;;;20.30;99.90;;;20.04;82.99;101546.38;5094911;28;20074;-73
2021/06/27 02:58:42;;;;;;;60.33;44.55;;;20.30;99.90;;;20.52;83.15;101636.16;5113203;28;20092;-73
2021/06/27 03:01:12;;;;;;;55.95;43.55;;;20.30;99.90;;;20.51;82.98;101631.72;5113526;28;20071;-73
2021/06/27 03:03:42;;;;;;;56.60;45.55;;;20.30;99.90;;;20.50;83.23;101640.72;5113082;28;20087;-73
2021/06/27 03:06:12;;;;;;;58.47;44.17;;;20.30;99.90;;;20.54;83.26;101644.16;5113464;28;20059;-73
2021/06/27 03:08:41;;;;;;;63.80;45.28;;;20.30;99.90;;;20.40;83.26;101606.13;5113221;28;20047;-73
2021/06/27 03:11:11;;;;;;;57.25;44.17;;;20.30;99.90;;;20.60;83.03;101635.91;5113858;28;20054;-73
2021/06/27 03:13:43;;;;;;;59.85;44.13;;;20.30;99.90;;;20.13;83.01;101559.50;5095041;28;20046;-73
2021/06/27 03:16:12;;;;;;;59.60;43.90;;;20.30;99.90;;;20.56;83.21;101636.94;5095016;28;20545;-73
2021/06/27 03:18:41;;;;;;;58.47;44.67;;;20.30;99.90;;;20.51;83.25;101629.03;5095029;28;20051;-73
2021/06/27 03:21:10;;;;;;;56.40;43.42;;;20.20;99.90;;;20.49;83.29;101636.28;5113264;28;20044;-73
2021/06/27 03:23:38;;;;;;;58.00;43.78;;;20.20;99.90;;;20.49;83.31;101635.41;5112825;28;20098;-73
2021/06/27 03:26:06;;;;;;;55.85;44.17;;;20.20;99.90;;;20.45;83.62;101618.50;5113246;28;20100;-73
2021/06/27 03:28:37;;;;;;;54.33;44.13;;;20.20;99.90;;;20.46;83.45;101624.75;5113163;28;20477;-73
2021/06/27 03:31:07;;;;;;;56.50;45.10;;;20.20;99.90;;;20.43;83.58;101620.34;5113539;28;20093;-73
2021/06/27 03:33:35;;;;;;;56.35;45.13;;;20.20;99.90;;;20.33;83.75;101623.38;5113148;28;20573;-73
2021/06/27 03:36:05;;;;;;;56.13;43.90;;;20.10;99.90;;;20.27;84.18;101616.41;5113077;28;20040;-73
2021/06/27 03:38:41;;;;;;;60.92;44.58;;;20.00;99.90;;;20.31;84.24;101620.75;5116966;28;20381;-73
2021/06/27 03:41:11;;;;;;;60.80;45.83;;;20.00;99.90;;;20.29;84.27;101617.22;5117510;28;20042;-73
2021/06/27 03:43:39;;;;;;;59.97;46.70;;;20.00;99.90;;;20.24;84.56;101616.50;5117143;28;20086;-73
2021/06/27 03:46:09;;;;;;;59.67;45.53;;;20.00;99.90;;;20.24;84.75;101616.50;5117080;28;20055;-73
2021/06/27 03:48:37;;;;;;;57.47;45.10;;;20.00;99.90;;;20.20;84.65;101619.34;5098713;28;20055;-73
2021/06/27 03:51:06;;;;;;;56.42;43.88;;;20.00;99.90;;;20.20;85.15;101622.91;5116915;28;20364;-73
2021/06/27 03:53:34;;;;;;;59.80;46.78;;;19.90;99.90;;;20.11;85.27;101617.78;5098601;28;20047;-73
2021/06/27 03:56:03;;;;;;;64.68;46.95;;;19.90;99.90;;;20.14;85.33;101612.31;5116533;28;20127;-73
2021/06/27 03:58:31;;;;;;;60.65;47.38;;;19.90;99.90;;;20.03;85.75;101625.22;5098479;28;20039;-73
2021/06/27 04:01:00;;;;;;;62.50;47.58;;;19.80;99.90;;;20.08;85.86;101623.25;5117064;28;20122;-73
2021/06/27 04:03:30;;;;;;;63.05;48.08;;;19.80;99.90;;;20.07;86.09;101631.38;5116414;28;20130;-73
2021/06/27 04:05:58;;;;;;;62.47;46.83;;;19.80;99.90;;;19.97;86.25;101614.66;5116733;28;20092;-73
2021/06/27 04:08:27;;;;;;;64.63;48.30;;;19.70;99.90;;;20.02;86.13;101623.44;5098287;28;20444;-73
2021/06/27 04:10:57;;;;;;;65.15;49.78;;;19.80;99.90;;;20.00;86.16;101614.56;5116530;28;20092;-73
2021/06/27 04:13:26;;;;;;;61.17;48.95;;;19.80;99.90;;;20.06;86.22;101618.84;5116536;28;20114;-73
2021/06/27 04:15:55;;;;;;;63.03;49.30;;;19.80;99.90;;;20.12;86.39;101619.53;5116412;28;20040;-73
2021/06/27 04:18:24;;;;;;;69.43;50.08;;;19.80;99.90;;;20.07;86.51;101604.50;5116172;28;20040;-73
2021/06/27 04:20:55;;;;;;;63.88;48.55;;;19.80;99.90;;;20.15;86.47;101606.00;5116087;28;20557;-73
2021/06/27 04:23:26;;;;;;;68.70;50.10;;;19.80;99.90;;;20.15;86.45;101602.47;5116298;28;20055;-73
2021/06/27 04:25:54;;;;;;;;;;;19.90;99.90;;;19.61;86.53;101524.47;5116564;28;20082;-73
2021/06/27 04:28:23;;;;;;;65.45;50.10;;;19.90;99.90;;;20.08;86.77;101585.66;5115998;28;20373;-73
2021/06/27 04:30:51;;;;;;;65.78;49.33;;;19.90;99.90;;;20.09;86.81;101587.38;5097933;28;20119;-73
2021/06/27 04:33:20;;;;;;;66.93;51.95;;;19.90;99.90;;;20.14;86.59;101587.25;5115880;28;20382;-73
2021/06/27 04:35:48;;;;;;;69.57;52.95;;;19.90;99.90;;;20.13;86.90;101586.38;5097960;28;20051;-73
2021/06/27 04:38:19;;;;;;;70.65;53.30;;;19.90;99.90;;;20.14;86.89;101588.13;5116074;28;20086;-73
2021/06/27 04:40:47;;;;;;;;;;;19.90;99.90;;;20.18;87.00;101586.22;5116421;28;20508;-73
2021/06/27 04:43:16;;;;;;;69.57;50.38;;;20.00;99.90;;;20.12;86.77;101590.00;5115906;28;19923;-73
2021/06/27 04:45:45;;;;;;;66.65;52.17;;;20.00;99.90;;;20.22;87.08;101586.13;5115884;28;20085;-73
2021/06/27 04:48:14;;;;;;;70.13;52.30;;;20.00;99.90;;;20.29;86.92;101586.78;5115191;28;20043;-73
2021/06/27 04:50:42;;;;;;;65.53;49.50;;;20.00;99.90;;;20.29;86.80;101582.28;5115745;28;20437;-73
2021/06/27 04:53:13;;;;;;;69.35;51.30;;;20.10;99.90;;;20.24;86.58;101564.56;5097442;28;20121;-73
2021/06/27 04:55:44;;;;;;;65.13;51.30;;;20.10;99.90;;;20.08;86.64;101566.84;5115547;28;20122;-73
2021/06/27 04:58:13;;;;;;;67.10;50.58;;;20.10;99.90;;;20.32;86.67;101575.94;5097171;28;20055;-73
2021/06/27 05:00:44;;;;;;;63.72;50.38;;;20.10;99.90;;;20.38;86.63;101579.28;5115890;28;20047;-73
2021/06/27 05:03:13;;;;;;;65.30;49.90;;;20.10;99.90;;;20.34;86.41;101555.28;5115401;28;20429;-73
2021/06/27 05:05:41;;;;;;;65.65;51.13;;;20.10;99.90;;;20.47;86.15;101572.75;5115534;28;20466;-73
2021/06/27 05:08:10;;;;;;;65.13;49.83;;;20.20;99.90;;;20.48;86.15;101575.38;5115199;28;20393;-73
2021/06/27 05:10:38;;;;;;;67.22;50.22;;;20.20;99.90;;;19.90;86.25;101478.78;5115423;28;20074;-73
2021/06/27 05:13:08;;;;;;;66.22;52.40;;;20.20;99.90;;;20.28;86.25;101559.06;5097037;28;20063;-73
2021/06/27 05:15:37;;;;;;;67.53;51.13;;;20.20;99.90;;;20.43;86.33;101569.28;5115299;28;20046;-73
2021/06/27 05:18:06;;;;;;;64.80;50.67;;;20.20;99.90;;;20.46;86.39;101565.63;5115310;28;20047;-73
2021/06/27 05:20:34;;;;;;;67.50;52.15;;;20.20;99.90;;;20.47;86.37;101570.06;5096938;28;20108;-72
2021/06/27 05:23:03;;;;;;;66.25;50.65;;;20.20;99.90;;;20.57;86.06;101575.06;5115039;28;20052;-73
2021/06/27 05:25:32;;;;;;;67.05;51.20;;;20.30;99.90;;;20.58;85.91;101576.81;5114986;28;20039;-73
2021/06/27 05:28:00;;;;;;;69.13;52.65;;;20.30;99.90;;;20.63;85.67;101573.97;5115046;28;20067;-72
2021/06/27 05:30:31;;;;;;;63.88;50.53;;;20.40;99.90;;;20.56;85.40;101567.94;5114793;28;20044;-72
2021/06/27 05:33:01;;;;;;;67.65;49.45;;;20.40;99.90;;;20.42;85.30;101545.16;5114815;28;20544;-72
2021/06/27 05:35:30;;;;;;;65.72;50.40;;;20.30;99.90;;;20.30;85.39;101505.25;5096618;28;20485;-72
2021/06/27 05:37:58;;;;;;;68.28;51.83;;;20.30;99.90;;;20.52;85.36;101560.91;5114898;28;20102;-73
2021/06/27 05:40:27;;;;;;;64.07;48.53;;;20.30;99.90;;;20.57;85.18;101558.94;5096756;28;20063;-72
2021/06/27 05:42:56;;;;;;;67.10;50.85;;;20.30;99.90;;;20.24;85.46;101498.28;5114453;28;20070;-72
2021/06/27 05:45:24;;;;;;;67.43;51.47;;;20.40;99.90;;;20.78;85.28;101562.69;5114490;28;20093;-73
2021/06/27 05:47:54;;;;;;;65.53;51.67;;;20.50;99.90;;;20.74;85.09;101547.59;5114722;28;20065;-73
2021/06/27 05:50:23;;;;;;;68.03;51.15;;;20.60;99.90;;;20.76;84.79;101552.91;5114683;28;20048;-73
2021/06/27 05:52:51;;;;;;;64.65;50.47;;;20.60;99.90;;;20.89;84.78;101562.28;5114609;28;20133;-73
2021/06/27 05:55:20;;;;;;;65.50;51.67;;;20.60;99.90;;;20.88;84.21;101561.44;5096108;28;20058;-73
2021/06/27 05:57:48;;;;;;;63.83;50.08;;;20.60;99.90;;;20.89;84.21;101559.59;5114391;28;20557;-72
2021/06/27 06:00:19;;;;;;;65.88;51.65;;;20.60;99.90;;;20.89;84.07;101562.28;5113792;28;20571;-72
2021/06/27 06:02:47;;;;;;;;;;;20.60;99.90;;;20.90;83.87;101559.56;5114691;28;20047;-73
2021/06/27 06:05:17;;;;;;;65.82;50.90;;;20.70;99.90;;;20.74;84.08;101530.56;5114574;28;19963;-73
2021/06/27 06:07:51;;;;;;;65.68;52.30;;;20.70;99.90;;;20.98;83.94;101570.06;5114146;28;20109;-72
2021/06/27 06:10:20;;;;;;;65.30;51.25;;;20.80;99.90;;;21.07;83.76;101572.44;5114034;28;20047;-72
2021/06/27 06:12:48;;;;;;;62.95;48.90;;;20.80;99.90;;;21.02;83.33;101563.66;5114137;28;20070;-72
2021/06/27 06:15:16;;;;;;;64.15;50.15;;;20.80;99.90;;;20.38;83.47;101465.56;5095490;28;20039;-72
2021/06/27 06:17:45;;;;;;;67.88;51.67;;;20.70;99.90;;;21.02;83.55;101566.34;5113909;28;20308;-72
2021/06/27 06:20:14;;;;;;;63.15;51.10;;;20.70;99.90;;;21.04;83.49;101573.41;5113927;28;20055;-72
2021/06/27 06:22:44;;;;;;;62.72;50.17;;;20.70;99.90;;;21.05;83.20;101574.28;5113652;28;20047;-71
2021/06/27 06:25:13;;;;;;;65.40;51.97;;;20.80;99.90;;;20.96;83.28;101563.84;5095823;28;20059;-72
2021/06/27 06:27:42;;;;;;;67.47;51.17;;;20.70;99.90;;;20.85;83.65;101574.97;5113987;28;20334;-72
2021/06/27 06:30:13;;;;;;;62.28;50.75;;;20.70;99.90;;;20.90;83.54;101570.31;5113524;28;20558;-72
2021/06/27 06:32:41;;;;;;;;;;;20.70;99.90;;;20.78;84.38;101573.44;5096049;28;20054;-72
2021/06/27 06:35:10;;;;;;;63.60;50.50;;;20.60;99.90;;;20.93;83.99;101572.00;5113508;28;19970;-72
2021/06/27 06:37:40;;;;;;;62.25;48.55;;;20.60;99.90;;;20.96;83.47;101571.91;5113545;28;20044;-72
2021/06/27 06:40:12;;;;;;;62.60;49.63;;;20.70;99.90;;;20.90;83.44;101574.81;5113616;28;20100;-71
2021/06/27 06:42:40;;;;;;;64.05;50.13;;;20.70;99.90;;;20.77;83.67;101554.69;5095544;28;20052;-72
2021/06/27 06:45:10;;;;;;;61.72;49.92;;;20.60;99.90;;;20.84;83.67;101567.84;5113652;28;20114;-71
2021/06/27 06:47:38;;;;;;;63.63;51.17;;;20.60;99.90;;;21.01;84.01;101561.88;5113553;28;20070;-72
2021/06/27 06:50:08;;;;;;;63.03;50.28;;;20.70;99.90;;;21.17;83.48;101558.59;5113554;28;20122;-72
2021/06/27 06:52:37;;;;;;;63.22;49.15;;;20.90;99.90;;;21.22;82.77;101563.78;5095526;28;20078;-72
2021/06/27 06:55:06;;;;;;;59.47;48.72;;;20.90;99.90;;;21.18;82.98;101567.53;5113543;28;20035;-72
2021/06/27 06:57:36;;;;;;;62.47;50.28;;;21.00;99.90;;;21.21;82.69;101573.69;5113599;28;20036;-72
2021/06/27 07:00:09;;;;;;;60.60;47.83;;;21.00;99.90;;;21.12;83.26;101573.13;5095170;28;20047;-72
2021/06/27 07:02:38;;;;;;;63.20;48.47;;;20.90;99.90;;;21.31;82.60;101568.84;5095101;28;20301;-72
2021/06/27 07:05:09;;;;;;;61.47;48.63;;;21.00;99.90;;;21.27;82.23;101573.44;5113123;28;20047;-72
2021/06/27 07:07:41;;;;;;;58.10;46.78;;;21.10;99.90;;;21.42;82.33;101572.00;5113379;28;20105;-72
2021/06/27 07:10:11;;;;;;;55.00;43.58;;;21.10;99.90;;;21.46;82.19;101563.78;5113275;28;20093;-72
2021/06/27 07:12:41;;;;;;;54.85;44.78;;;21.20;99.90;;;21.41;81.62;101570.25;5117958;28;20084;-72
2021/06/27 07:15:11;;;;;;;56.97;45.20;;;21.20;99.90;;;21.35;82.07;101576.72;5101859;28;20039;-71
2021/06/27 07:17:41;;;;;;;59.53;47.25;;;21.10;99.90;;;21.13;81.97;101550.69;5119765;28;20047;-72
2021/06/27 07:20:11;;;;;;;58.25;46.40;;;21.10;99.90;;;21.32;81.59;101578.66;5119752;28;20122;-71
2021/06/27 07:22:40;;;;;;;57.33;47.15;;;21.10;99.90;;;21.28;81.72;101548.31;5120102;28;20043;-71
2021/06/27 07:25:11;;;;;;;56.72;45.03;;;21.20;99.90;;;21.52;80.87;101571.59;5079279;28;20052;-72
2021/06/27 07:27:41;;;;;;;55.47;44.63;;;21.30;99.90;;;21.57;80.64;101574.09;5077515;28;20097;-72
2021/06/27 07:30:11;;;;;;;54.13;44.28;;;21.30;99.90;;;21.66;80.33;101576.44;5079227;28;20059;-72
2021/06/27 07:32:39;;;;;;;53.72;43.78;;;21.40;99.90;;;21.73;80.24;101572.59;5079393;28;20371;-71
2021/06/27 07:35:09;;;;;;;56.25;45.25;;;21.50;99.90;;;21.75;79.56;101578.81;5077941;28;20131;-72
2021/06/27 07:37:44;;;;;;;49.90;41.15;;;21.60;99.90;;;21.82;79.22;101564.16;5078918;28;20482;-71
2021/06/27 07:40:15;;;;;;;55.53;43.40;;;21.60;99.90;;;21.83;79.06;101560.56;5079309;28;20037;-71
2021/06/27 07:42:45;;;;;;;48.67;42.00;;;21.70;99.90;;;21.99;78.73;101571.59;5079240;28;20041;-71
2021/06/27 07:45:15;;;;;;;51.90;41.58;;;21.70;99.90;;;21.75;78.16;101565.34;5079192;28;20059;-72
2021/06/27 07:47:43;;;;;;;53.78;42.08;;;21.70;99.90;;;21.72;78.27;101580.75;5078833;28;20044;-72
2021/06/27 07:50:13;;;;;;;53.20;43.53;;;21.60;99.90;;;21.52;79.69;101589.56;5078837;28;20032;-72
2021/06/27 07:52:41;;;;;;;57.53;43.85;;;21.40;99.90;;;21.37;80.79;101590.13;5077429;28;20048;-72
2021/06/27 07:55:11;;;;;;;55.50;43.42;;;21.20;99.90;;;21.26;81.54;101578.88;5077797;28;20098;-72
2021/06/27 07:57:40;;;;;;;55.38;43.88;;;21.00;99.90;;;21.39;80.16;101577.50;5079223;28;20113;-71
2021/06/27 08:00:12;;;;;;;53.33;43.58;;;21.20;99.90;;;21.65;79.99;101582.78;5078569;28;20037;-71
2021/06/27 08:02:42;;;;;;;53.75;43.38;;;21.30;99.90;;;21.68;80.01;101584.50;5078708;28;20143;-71
2021/06/27 08:05:11;;;;;;;54.53;42.53;;;21.40;99.90;;;21.67;79.16;101588.09;5077875;28;20056;-71
2021/06/27 08:07:41;;;;;;;51.10;42.20;;;21.50;99.90;;;21.86;79.30;101573.00;5078992;28;20079;-71
2021/06/27 08:10:13;;;;;;;50.07;42.23;;;21.60;99.90;;;21.86;78.26;101591.88;5077674;28;20044;-71
2021/06/27 08:12:42;;;;;;;51.13;41.30;;;21.70;99.90;;;21.88;78.73;101596.25;5077693;28;20060;-71
2021/06/27 08:15:18;;;;;;;50.65;41.17;;;21.70;99.90;;;21.66;79.24;101594.44;5078924;28;20048;-71
2021/06/27 08:17:48;;;;;;;50.70;41.50;;;21.50;99.90;;;21.98;80.94;101589.56;5077544;28;20502;-72
2021/06/27 08:20:20;;;;;;;48.42;40.17;;;21.60;99.90;;;21.67;80.19;101597.06;5078928;28;20044;-71
2021/06/27 08:22:49;;;;;;;45.03;39.95;;;21.50;99.90;;;21.97;78.27;101589.66;5079889;28;20102;-71
2021/06/27 08:25:18;;;;;;;48.90;38.90;;;21.60;99.90;;;21.72;76.96;101596.91;5115713;28;20047;-72
2021/06/27 08:27:46;;;;;;;46.03;40.72;;;21.60;99.90;;;21.70;80.48;101596.94;5115983;28;20412;-71
2021/06/27 08:30:19;;;;;;;49.42;42.15;;;21.50;99.90;;;21.95;78.99;101591.53;5116173;28;20036;-71
2021/06/27 08:32:48;;;;;;;48.67;39.85;;;21.60;99.90;;;21.89;79.28;101583.69;5116225;28;20118;-72
2021/06/27 08:35:19;;;;;;;46.08;38.45;;;21.60;99.90;;;22.38;78.20;101592.41;5116067;28;20067;-72
2021/06/27 08:37:49;;;;;;;45.72;39.42;;;22.00;99.90;;;21.93;76.71;101478.41;5115981;28;20071;-72
2021/06/27 08:40:20;;;;;;;44.35;39.20;;;22.30;99.90;;;22.30;76.59;101581.06;5097582;28;20054;-72
2021/06/27 08:42:50;;;;;;;41.97;36.90;;;22.20;99.90;;;22.71;76.21;101581.16;5097712;28;20052;-71
2021/06/27 08:45:23;;;;;;;41.75;37.30;;;22.40;99.90;;;23.03;74.46;101583.34;5115855;28;20048;-71
2021/06/27 08:47:54;;;;;;;41.97;36.10;;;22.70;99.90;;;22.45;74.41;101575.00;5115883;28;20039;-72
2021/06/27 08:50:23;;;;;;;41.03;35.53;;;22.50;99.90;;;22.77;74.03;101564.69;5115839;28;20096;-72
2021/06/27 08:52:53;;;;;;;38.55;34.35;;;22.50;99.90;;;23.02;74.87;101571.66;5115463;28;20070;-71
2021/06/27 08:55:22;;;;;;;37.72;33.05;;;22.70;99.90;;;23.34;72.17;101567.53;5115915;28;20112;-72
2021/06/27 08:57:51;;;;;;;38.17;32.50;;;23.00;99.90;;;23.47;70.75;101567.84;5097286;28;20048;-72
2021/06/27 09:00:21;;;;;;;38.90;32.47;;;23.20;99.90;;;23.65;70.16;101573.28;5115373;28;20163;-72
2021/06/27 09:02:50;;;;;;;44.63;32.33;;;23.40;99.90;;;23.10;71.39;101563.22;5115625;28;20394;-71
2021/06/27 09:05:21;;;;;;;35.38;31.25;;;23.10;99.90;;;23.16;72.51;101535.94;5115187;28;20036;-71
2021/06/27 09:07:50;;;;;;;34.72;31.05;;;22.90;99.90;;;23.69;70.40;101555.09;5115234;28;20044;-71
2021/06/27 09:10:26;;;;;;;34.72;30.75;;;23.30;99.90;;;23.87;69.09;101562.28;5115475;28;20051;-72
2021/06/27 09:12:57;;;;;;;36.38;30.70;;;23.60;99.90;;;23.98;67.82;101557.28;5115451;28;20071;-72
2021/06/27 09:15:41;;;;;;;33.92;30.05;;;23.80;99.90;;;23.26;68.21;101542.69;5115350;28;20048;-72
2021/06/27 09:18:22;;;;;;;34.53;29.88;;;23.40;99.90;;;23.28;68.90;101554.28;5096988;28;20050;-71
2021/06/27 09:20:53;;;;;;;35.50;31.10;;;23.10;99.90;;;23.15;70.47;101545.00;5097204;28;20134;-72
2021/06/27 09:23:36;;;;;;;35.55;31.05;;;22.90;99.90;;;22.91;69.85;101549.69;5114932;28;20052;-71
2021/06/27 09:26:06;;;;;;;36.60;32.10;;;22.80;99.90;;;23.01;71.33;101547.44;5115001;28;20036;-72
2021/06/27 09:28:46;;;;;;;36.30;31.70;;;22.70;99.90;;;23.06;70.74;101538.19;5096707;28;20044;-71
2021/06/27 09:31:40;;;;;;;34.38;30.50;;;22.80;99.90;;;23.12;70.04;101539.72;5114918;28;20427;-71
2021/06/27 09:34:13;;;;;;;36.05;32.13;;;22.80;99.90;;;22.68;70.90;101540.84;5115157;28;20036;-71
2021/06/27 09:36:47;;;;;;;34.55;30.13;;;22.60;99.90;;;22.97;70.13;101540.44;5114936;28;20043;-71
2021/06/27 09:39:18;;;;;;;39.65;31.38;;;22.70;99.90;;;22.85;70.90;101519.38;5096483;28;20093;-71
2021/06/27 09:41:49;;;;;;;;;;;22.70;99.90;;;23.22;72.03;101541.06;5115362;28;20043;-71
2021/06/27 09:44:19;;;;;;;33.78;29.52;;;22.90;99.90;;;23.38;71.22;101534.06;5114870;28;19927;-71
2021/06/27 09:46:51;;;;;;;36.43;30.40;;;23.00;99.90;;;23.62;70.68;101516.66;5114683;28;20097;-72
2021/06/27 09:49:29;;;;;;;38.25;30.10;;;23.30;99.90;;;23.37;69.15;101517.91;5114753;28;20350;-71
2021/06/27 09:52:02;;;;;;;36.67;31.50;;;23.30;99.90;;;22.86;69.91;101435.66;5096251;28;20507;-72
2021/06/27 09:54:30;;;;;;;32.75;29.23;;;23.20;99.90;;;23.95;69.87;101533.97;5114405;28;20096;-72
2021/06/27 09:56:59;;;;;;;36.13;31.08;;;23.60;99.90;;;24.29;68.61;101526.91;5095925;28;20079;-72
2021/06/27 09:59:35;;;;;;;34.30;30.65;;;23.90;99.90;;;24.49;67.48;101529.47;5113564;28;20043;-72
2021/06/27 10:02:06;;;;;;;38.20;30.92;;;24.20;99.90;;;24.80;66.27;101524.22;5114100;28;20439;-72
2021/06/27 10:04:37;;;;;;;34.25;30.75;;;24.50;99.90;;;25.15;66.96;101531.34;5095873;28;20058;-72
2021/06/27 10:07:07;;;;;;;38.10;32.47;;;24.80;99.90;;;25.16;66.17;101495.22;5114284;28;20044;-72
2021/06/27 10:09:38;;;;;;;39.78;31.48;;;25.10;99.90;;;25.32;66.03;101525.88;5114345;28;20043;-72
2021/06/27 10:12:09;;;;;;;33.42;29.95;;;25.10;99.90;;;24.60;66.37;101519.81;5114575;28;20092;-72